Time;durP1;ratioP1;P1;durP2;ratioP2;P2;SDS_P1;SDS_P2;PMS_P1;PMS_P2;Temp;Humidity;BMP_temperature;BMP_pressure;BME280_temperature;BME280_humidity;BME280_pressure;Samples;Min_cycle;Max_cycle;Signal;HPM_P1;HPM_P2
2023/12/01 00:01:45;;;;;;;3.13;2.57;;;6.60;99.90;;;;;;7395570;19;20138;-84
2023/12/01 00:04:10;;;;;;;2.83;2.27;;;6.50;99.90;;;;;;7396583;19;20145;-84
2023/12/01 00:06:37;;;;;;;2.07;1.60;;;6.50;99.90;;;;;;7394911;19;20461;-83
2023/12/01 00:09:03;;;;;;;2.17;1.97;;;6.50;99.90;;;;;;7398681;19;20130;-82
2023/12/01 00:11:29;;;;;;;1.93;1.53;;;6.50;99.90;;;;;;7392631;19;20156;-81
2023/12/01 00:13:55;;;;;;;3.00;2.00;;;6.50;99.90;;;;;;7393736;19;20141;-87
2023/12/01 00:16:20;;;;;;;2.23;1.60;;;6.40;99.90;;;;;;7396533;19;20758;-85
2023/12/01 00:18:46;;;;;;;2.43;2.23;;;6.40;99.90;;;;;;7393280;19;20718;-85
2023/12/01 00:21:12;;;;;;;2.23;2.03;;;6.40;99.90;;;;;;7394807;19;20175;-85
2023/12/01 00:23:37;;;;;;;2.20;1.83;;;6.30;99.90;;;;;;7397905;19;20144;-83
2023/12/01 00:26:03;;;;;;;2.10;1.90;;;6.20;99.90;;;;;;7398809;19;20756;-81
2023/12/01 00:28:29;;;;;;;2.00;1.80;;;6.30;99.90;;;;;;7397973;19;20146;-85
2023/12/01 00:30:55;;;;;;;1.83;1.60;;;6.30;99.90;;;;;;7394687;19;20134;-85
2023/12/01 00:33:21;;;;;;;2.00;1.50;;;6.20;99.90;;;;;;7399631;19;20846;-86
2023/12/01 00:35:47;;;;;;;3.23;2.17;;;6.30;99.90;;;;;;7397106;19;20148;-85
2023/12/01 00:38:13;;;;;;;2.10;1.40;;;6.30;99.90;;;;;;7399370;19;20127;-86
2023/12/01 00:40:38;;;;;;;2.83;1.60;;;6.20;99.90;;;;;;7397271;19;20131;-85
2023/12/01 00:43:04;;;;;;;1.57;1.47;;;6.20;99.90;;;;;;7396078;19;20502;-83
2023/12/01 00:45:30;;;;;;;4.30;2.30;;;6.20;99.90;;;;;;7398176;19;20139;-87
2023/12/01 00:47:56;;;;;;;2.77;2.27;;;6.20;99.90;;;;;;7395489;19;20750;-86
2023/12/01 00:50:21;;;;;;;2.17;1.90;;;6.20;99.90;;;;;;7391887;19;20199;-86
2023/12/01 00:52:49;;;;;;;2.87;1.97;;;5.50;99.90;;;;;;7393924;19;20153;-86
2023/12/01 00:55:15;;;;;;;2.10;1.70;;;5.10;99.90;;;;;;7395905;19;20135;-87
2023/12/01 00:57:40;;;;;;;1.67;1.53;;;5.40;99.90;;;;;;7398119;19;20159;-86
2023/12/01 01:00:08;;;;;;;3.77;2.20;;;5.60;99.90;;;;;;7396120;19;20656;-86
2023/12/01 01:02:33;;;;;;;2.23;2.03;;;5.90;99.90;;;;;;7397490;19;20166;-84
2023/12/01 01:04:59;;;;;;;2.10;1.90;;;6.20;99.90;;;;;;7399442;19;20224;-85
2023/12/01 01:07:25;;;;;;;2.80;2.20;;;6.20;99.90;;;;;;7399867;19;20202;-87
2023/12/01 01:09:51;;;;;;;2.03;1.73;;;6.30;99.90;;;;;;7400954;19;20127;-86
2023/12/01 01:12:16;;;;;;;3.20;1.90;;;6.20;99.90;;;;;;7397681;19;20134;-85
2023/12/01 01:14:42;;;;;;;2.37;2.17;;;6.20;99.90;;;;;;7391893;19;20180;-83
2023/12/01 01:17:08;;;;;;;3.83;2.50;;;6.20;99.90;;;;;;7391247;19;20659;-81
2023/12/01 01:19:34;;;;;;;2.83;2.60;;;6.20;99.90;;;;;;7394984;19;20590;-87
2023/12/01 01:21:59;;;;;;;2.90;2.43;;;6.10;99.90;;;;;;7396082;19;20875;-86
2023/12/01 01:24:25;;;;;;;2.67;1.97;;;6.10;99.90;;;;;;7395725;19;20134;-87
2023/12/01 01:26:51;;;;;;;4.30;2.50;;;6.00;99.90;;;;;;7394178;19;20594;-86
2023/12/01 01:29:16;;;;;;;2.33;1.83;;;6.00;99.90;;;;;;7395885;19;20467;-84
2023/12/01 01:31:42;;;;;;;5.40;1.87;;;6.00;99.90;;;;;;7393092;19;20157;-85
2023/12/01 01:34:08;;;;;;;2.43;1.93;;;6.00;99.90;;;;;;7395441;19;20210;-82
2023/12/01 01:36:34;;;;;;;2.73;1.90;;;5.90;99.90;;;;;;7395552;19;20555;-87
2023/12/01 01:39:00;;;;;;;2.37;2.03;;;5.90;99.90;;;;;;7396574;19;20218;-86
2023/12/01 01:41:25;;;;;;;2.63;2.43;;;5.80;99.90;;;;;;7395465;19;20163;-87
2023/12/01 01:43:51;;;;;;;2.10;1.73;;;5.80;99.90;;;;;;7394144;19;20213;-88
2023/12/01 01:46:17;;;;;;;2.37;1.97;;;5.80;99.90;;;;;;7395418;19;20675;-86
2023/12/01 01:48:43;;;;;;;2.50;2.10;;;5.80;99.90;;;;;;7395216;19;20571;-85
2023/12/01 01:51:09;;;;;;;2.83;2.47;;;5.80;99.90;;;;;;7394678;19;20250;-87
2023/12/01 01:53:42;;;;;;;2.80;2.07;;;5.50;99.90;;;;;;7396045;19;20206;-86
2023/12/01 01:56:12;;;;;;;1.90;1.80;;;5.60;99.90;;;;;;7397038;19;20596;-85
2023/12/01 01:58:38;;;;;;;1.90;1.77;;;5.60;99.90;;;;;;7394412;19;20146;-87
2023/12/01 02:01:07;;;;;;;2.83;2.27;;;5.80;99.90;;;;;;7394688;19;20138;-86
2023/12/01 02:03:33;;;;;;;3.13;2.20;;;5.90;99.90;;;;;;7399366;19;20138;-87
2023/12/01 02:05:59;;;;;;;2.40;1.83;;;5.90;99.90;;;;;;7397406;19;20158;-82
2023/12/01 02:08:29;;;;;;;1.73;1.63;;;5.90;99.90;;;;;;7397958;19;20222;-86
2023/12/01 02:10:56;;;;;;;2.33;2.13;;;5.80;99.90;;;;;;7396491;19;20147;-86
2023/12/01 02:13:23;;;;;;;2.40;2.20;;;5.70;99.90;;;;;;7396427;19;20139;-87
2023/12/01 02:15:50;;;;;;;2.60;1.83;;;5.70;99.90;;;;;;7394283;19;20228;-85
2023/12/01 02:18:20;;;;;;;2.93;2.20;;;5.80;99.90;;;;;;7393673;19;20149;-86
2023/12/01 02:20:47;;;;;;;2.27;1.77;;;5.50;99.90;;;;;;7395225;19;20491;-86
2023/12/01 02:23:13;;;;;;;3.13;2.20;;;5.50;99.90;;;;;;7399878;19;20134;-88
2023/12/01 02:25:39;;;;;;;2.60;1.80;;;5.70;99.90;;;;;;7398097;19;20171;-86
2023/12/01 02:28:04;;;;;;;2.50;2.30;;;5.70;99.90;;;;;;7395707;19;20600;-86
2023/12/01 02:30:30;;;;;;;4.23;3.00;;;5.70;99.90;;;;;;7411027;19;20158;-89
2023/12/01 02:32:56;;;;;;;6.00;2.17;;;5.70;99.90;;;;;;7414124;19;20135;-88
2023/12/01 02:35:29;;;;;;;2.50;2.30;;;5.70;99.90;;;;;;7412615;19;20202;-86
2023/12/01 02:37:56;;;;;;;2.47;2.23;;;5.70;99.90;;;;;;7410237;19;20131;-86
2023/12/01 02:40:23;;;;;;;2.60;2.23;;;5.60;99.90;;;;;;7402628;19;20584;-89
2023/12/01 02:42:49;;;;;;;1.97;1.87;;;5.70;99.90;;;;;;7404827;19;20215;-90
2023/12/01 02:45:19;;;;;;;2.87;2.20;;;5.80;99.90;;;;;;7406881;19;20130;-88
2023/12/01 02:47:47;;;;;;;1.83;1.67;;;5.70;99.90;;;;;;7402569;19;20210;-89
2023/12/01 02:50:14;;;;;;;4.37;2.27;;;5.50;99.90;;;;;;7401724;19;20156;-86
2023/12/01 02:52:41;;;;;;;2.90;1.70;;;5.40;99.90;;;;;;7400674;19;20150;-88
2023/12/01 02:55:10;;;;;;;2.33;2.10;;;5.40;99.90;;;;;;7398177;19;20154;-87
2023/12/01 02:57:39;;;;;;;2.37;1.97;;;5.50;99.90;;;;;;7403311;19;20159;-84
2023/12/01 03:00:08;;;;;;;2.37;2.17;;;5.60;99.90;;;;;;7401120;19;20160;-85
2023/12/01 03:02:34;;;;;;;2.70;2.00;;;5.60;99.90;;;;;;7403084;19;20183;-84
2023/12/01 03:05:00;;;;;;;3.73;2.60;;;5.50;99.90;;;;;;7397818;19;21611;-84
2023/12/01 03:07:26;;;;;;;2.30;2.10;;;5.50;99.90;;;;;;7400097;19;20146;-87
2023/12/01 03:09:52;;;;;;;2.17;1.97;;;5.40;99.90;;;;;;7401855;19;20566;-87
2023/12/01 03:12:18;;;;;;;1.27;1.10;;;5.40;99.90;;;;;;7403669;19;20131;-85
2023/12/01 03:14:44;;;;;;;3.67;2.30;;;5.50;99.90;;;;;;7399143;19;20130;-85
2023/12/01 03:17:09;;;;;;;2.77;1.90;;;5.50;99.90;;;;;;7392624;19;20127;-86
2023/12/01 03:19:35;;;;;;;1.60;1.50;;;5.50;99.90;;;;;;7397219;19;20143;-83
2023/12/01 03:22:01;;;;;;;2.37;2.07;;;5.50;99.90;;;;;;7401571;19;20134;-86
2023/12/01 03:24:26;;;;;;;2.17;1.97;;;5.40;99.90;;;;;;7400720;19;20134;-85
2023/12/01 03:26:52;;;;;;;3.70;2.80;;;5.30;99.90;;;;;;7402298;19;20131;-86
2023/12/01 03:29:19;;;;;;;3.63;2.80;;;5.20;99.90;;;;;;7399104;19;20127;-86
2023/12/01 03:31:45;;;;;;;2.60;1.70;;;5.10;99.90;;;;;;7397963;19;20138;-87
2023/12/01 03:34:10;;;;;;;1.87;1.47;;;5.10;99.90;;;;;;7399605;19;20138;-85
2023/12/01 03:36:36;;;;;;;2.50;1.97;;;5.10;99.90;;;;;;7400034;19;20178;-84
2023/12/01 03:39:02;;;;;;;3.33;2.57;;;5.00;99.90;;;;;;7397024;19;20127;-85
2023/12/01 03:41:29;;;;;;;3.10;2.77;;;5.10;99.90;;;;;;7396096;19;20142;-87
2023/12/01 03:43:54;;;;;;;1.60;1.50;;;5.20;99.90;;;;;;7399293;19;20182;-88
2023/12/01 03:46:20;;;;;;;2.67;1.60;;;5.20;99.90;;;;;;7400257;19;20185;-85
2023/12/01 03:48:46;;;;;;;2.53;2.33;;;5.20;99.90;;;;;;7398226;19;20134;-86
2023/12/01 03:51:14;;;;;;;1.80;1.57;;;5.20;99.90;;;;;;7398091;19;20149;-85
2023/12/01 03:53:39;;;;;;;2.17;1.87;;;5.10;99.90;;;;;;7399426;19;20225;-83
2023/12/01 03:56:08;;;;;;;4.60;2.30;;;4.70;99.90;;;;;;7401201;19;20155;-84
2023/12/01 03:58:34;;;;;;;3.17;2.20;;;4.80;99.90;;;;;;7394037;19;20158;-85
2023/12/01 04:01:05;;;;;;;3.70;2.30;;;4.70;99.90;;;;;;7392695;19;20812;-84
2023/12/01 04:03:32;;;;;;;2.37;2.00;;;4.90;99.90;;;;;;7397216;19;20166;-82
2023/12/01 04:06:01;;;;;;;2.60;1.60;;;5.20;99.90;;;;;;7396490;19;20173;-86
2023/12/01 04:08:27;;;;;;;2.10;1.90;;;5.20;99.90;;;;;;7398108;19;20138;-86
2023/12/01 04:10:55;;;;;;;2.30;2.10;;;5.30;99.90;;;;;;7398041;19;20142;-85
2023/12/01 04:13:21;;;;;;;1.70;1.60;;;5.20;99.90;;;;;;7397916;19;20492;-84
2023/12/01 04:15:47;;;;;;;1.73;1.60;;;5.30;99.90;;;;;;7398792;19;20155;-86
2023/12/01 04:18:13;;;;;;;1.90;1.73;;;5.10;99.90;;;;;;7398792;19;20150;-84
2023/12/01 04:20:39;;;;;;;1.43;1.33;;;5.10;99.90;;;;;;7399898;19;20150;-83
2023/12/01 04:23:10;;;;;;;2.17;1.80;;;5.10;99.90;;;;;;7395855;19;20155;-83
2023/12/01 04:25:40;;;;;;;2.07;1.77;;;5.10;99.90;;;;;;7395999;19;20153;-84
2023/12/01 04:28:06;;;;;;;2.97;2.27;;;5.10;99.90;;;;;;7397552;19;20134;-84
2023/12/01 04:30:34;;;;;;;2.70;2.50;;;5.00;99.90;;;;;;7397379;19;20135;-84
2023/12/01 04:33:00;;;;;;;2.53;2.23;;;5.00;99.90;;;;;;7394832;19;20161;-79
2023/12/01 04:35:31;;;;;;;3.17;2.60;;;5.10;99.90;;;;;;7395948;19;20135;-80
2023/12/01 04:37:59;;;;;;;2.57;2.30;;;5.10;99.90;;;;;;7393204;19;20127;-83
2023/12/01 04:40:27;;;;;;;2.27;2.07;;;5.10;99.90;;;;;;7392879;19;20139;-80
2023/12/01 04:42:57;;;;;;;2.33;2.13;;;5.00;99.90;;;;;;7392977;19;20550;-84
2023/12/01 04:45:25;;;;;;;2.37;1.97;;;5.00;99.90;;;;;;7393227;19;20146;-83
2023/12/01 04:47:52;;;;;;;3.20;1.87;;;4.60;99.90;;;;;;7393266;19;20147;-84
2023/12/01 04:50:30;;;;;;;4.30;2.17;;;4.90;99.90;;;;;;7392694;19;20131;-84
2023/12/01 04:52:58;;;;;;;2.73;2.33;;;4.70;99.90;;;;;;7395994;19;20135;-83
2023/12/01 04:55:26;;;;;;;3.53;2.53;;;4.90;99.90;;;;;;7392908;19;20140;-85
2023/12/01 04:57:52;;;;;;;1.57;1.43;;;5.00;99.90;;;;;;7397101;19;20127;-83
2023/12/01 05:00:20;;;;;;;2.93;1.60;;;5.00;99.90;;;;;;7391324;19;20131;-83
2023/12/01 05:02:54;;;;;;;2.37;2.07;;;4.70;99.90;;;;;;7393240;19;20640;-83
2023/12/01 05:05:22;;;;;;;2.80;2.20;;;4.80;99.90;;;;;;7394584;19;20167;-85
2023/12/01 05:07:50;;;;;;;2.13;1.60;;;4.80;99.90;;;;;;7393467;19;20619;-83
2023/12/01 05:10:22;;;;;;;2.67;2.47;;;4.70;99.90;;;;;;7393574;19;20134;-80
2023/12/01 05:12:50;;;;;;;2.33;2.07;;;4.80;99.90;;;;;;7392770;19;20469;-83
2023/12/01 05:15:21;;;;;;;2.87;2.30;;;4.90;99.90;;;;;;7392691;19;20138;-83
2023/12/01 05:17:50;;;;;;;2.13;1.67;;;5.00;99.90;;;;;;7389950;19;20620;-84
2023/12/01 05:20:16;;;;;;;2.30;2.07;;;5.10;99.90;;;;;;7393499;19;20143;-82
2023/12/01 05:22:47;;;;;;;1.37;1.27;;;5.10;99.90;;;;;;7393745;19;20611;-83
2023/12/01 05:25:14;;;;;;;2.30;2.10;;;4.90;99.90;;;;;;7391979;19;20147;-83
2023/12/01 05:27:49;;;;;;;1.67;1.57;;;5.00;99.90;;;;;;7393414;19;20206;-83
2023/12/01 05:30:22;;;;;;;1.97;1.50;;;5.00;99.90;;;;;;7391808;19;20522;-82
2023/12/01 05:32:49;;;;;;;3.07;2.00;;;5.00;99.90;;;;;;7391235;19;20173;-81
2023/12/01 05:35:16;;;;;;;2.70;1.90;;;5.10;99.90;;;;;;7391496;19;20487;-80
2023/12/01 05:37:50;;;;;;;4.60;1.73;;;5.10;99.90;;;;;;7393278;19;20141;-84
2023/12/01 05:40:34;;;;;;;2.03;1.87;;;5.10;99.90;;;;;;7389812;19;20123;-85
2023/12/01 05:43:00;;;;;;;2.23;1.60;;;4.60;99.90;;;;;;7391760;19;20229;-84
2023/12/01 05:45:29;;;;;;;2.47;2.23;;;4.40;99.90;;;;;;7392897;19;20164;-82
2023/12/01 05:47:56;;;;;;;2.23;2.03;;;4.70;99.90;;;;;;7389265;19;20146;-84
2023/12/01 05:50:30;;;;;;;2.00;1.63;;;4.90;99.90;;;;;;7388424;19;20126;-82
2023/12/01 05:52:57;;;;;;;1.73;1.53;;;4.50;99.90;;;;;;7390512;19;20471;-81
2023/12/01 05:55:28;;;;;;;3.00;1.70;;;4.80;99.90;;;;;;7387973;19;20155;-81
2023/12/01 05:57:58;;;;;;;1.77;1.60;;;5.00;99.90;;;;;;7389843;19;20130;-83
2023/12/01 06:00:29;;;;;;;1.23;1.10;;;5.00;99.90;;;;;;7391237;19;20146;-80
2023/12/01 06:02:59;;;;;;;2.10;1.57;;;4.70;99.90;;;;;;7389669;19;20135;-80
2023/12/01 06:05:26;;;;;;;2.00;1.33;;;4.80;99.90;;;;;;7388056;19;20161;-82
2023/12/01 06:07:54;;;;;;;1.90;1.20;;;4.90;99.90;;;;;;7386705;19;20157;-81
2023/12/01 06:10:22;;;;;;;2.43;2.17;;;4.90;99.90;;;;;;7388762;19;20299;-84
2023/12/01 06:12:47;;;;;;;3.97;1.67;;;5.00;99.90;;;;;;7386094;19;20131;-78
2023/12/01 06:15:16;;;;;;;1.83;1.57;;;4.90;99.90;;;;;;7387647;19;20272;-83
2023/12/01 06:17:46;;;;;;;1.30;1.20;;;4.90;99.90;;;;;;7385355;19;20150;-82
2023/12/01 06:20:24;;;;;;;3.47;2.33;;;4.80;99.90;;;;;;7388069;19;20150;-84
2023/12/01 06:22:58;;;;;;;2.43;1.77;;;4.80;99.90;;;;;;7390089;19;20130;-84
2023/12/01 06:25:29;;;;;;;1.10;1.07;;;4.80;99.90;;;;;;7388894;19;20144;-84
2023/12/01 06:27:57;;;;;;;1.33;1.27;;;4.80;99.90;;;;;;7388886;19;20218;-83
2023/12/01 06:30:24;;;;;;;2.03;1.50;;;4.80;99.90;;;;;;7388558;19;20154;-84
2023/12/01 06:32:50;;;;;;;1.53;1.43;;;4.70;99.90;;;;;;7388576;19;20178;-82
2023/12/01 06:35:18;;;;;;;1.70;1.60;;;4.80;99.90;;;;;;7391037;19;20170;-83
2023/12/01 06:37:44;;;;;;;2.87;1.90;;;4.40;99.90;;;;;;7388375;19;20141;-82
2023/12/01 06:40:11;;;;;;;1.83;1.43;;;4.70;99.90;;;;;;7387624;19;20161;-80
2023/12/01 06:42:48;;;;;;;2.47;1.67;;;4.70;99.90;;;;;;7385620;19;20208;-81
2023/12/01 06:45:16;;;;;;;1.20;1.10;;;4.80;99.90;;;;;;7388766;19;20150;-81
2023/12/01 06:47:46;;;;;;;1.47;1.37;;;4.80;99.90;;;;;;7388580;19;20142;-83
2023/12/01 06:50:14;;;;;;;1.87;1.60;;;4.50;99.90;;;;;;7388156;19;20179;-83
2023/12/01 06:52:44;;;;;;;1.80;1.60;;;4.80;99.90;;;;;;7389054;19;20470;-81
2023/12/01 06:55:10;;;;;;;1.60;1.50;;;4.50;99.90;;;;;;7390460;19;20135;-82
2023/12/01 06:57:38;;;;;;;1.50;1.40;;;4.60;99.90;;;;;;7389792;19;20623;-82
2023/12/01 07:00:09;;;;;;;1.67;1.57;;;4.80;99.90;;;;;;7388032;19;20139;-81
2023/12/01 07:02:40;;;;;;;1.33;1.10;;;4.90;99.90;;;;;;7392243;19;20181;-82
2023/12/01 07:05:19;;;;;;;1.73;1.00;;;4.90;99.90;;;;;;7388356;19;20190;-79
2023/12/01 07:07:45;;;;;;;1.30;1.20;;;4.90;99.90;;;;;;7385179;19;20790;-81
2023/12/01 07:10:11;;;;;;;1.27;1.13;;;4.70;99.90;;;;;;7387044;19;20131;-80
2023/12/01 07:12:36;;;;;;;1.33;1.23;;;4.70;99.90;;;;;;7387785;19;20655;-80
2023/12/01 07:15:11;;;;;;;1.40;1.30;;;4.20;99.90;;;;;;7391666;19;20585;-86
2023/12/01 07:17:38;;;;;;;1.97;1.73;;;4.20;99.90;;;;;;7396024;19;20147;-84
2023/12/01 07:20:14;;;;;;;1.90;1.53;;;4.60;99.90;;;;;;7397079;19;20139;-85
2023/12/01 07:22:42;;;;;;;1.23;1.07;;;4.80;99.90;;;;;;7400947;19;20138;-83
2023/12/01 07:25:10;;;;;;;1.63;1.53;;;4.90;99.90;;;;;;7401149;19;20142;-82
2023/12/01 07:27:40;;;;;;;1.77;1.67;;;4.60;99.90;;;;;;7390768;19;20225;-78
2023/12/01 07:30:06;;;;;;;1.40;1.30;;;4.60;99.90;;;;;;7394434;19;20164;-82
2023/12/01 07:32:33;;;;;;;1.97;1.77;;;4.70;99.90;;;;;;7389932;19;20230;-80
2023/12/01 07:34:58;;;;;;;2.10;1.60;;;4.90;99.90;;;;;;7390015;19;20171;-82
2023/12/01 07:37:24;;;;;;;2.40;2.20;;;4.90;99.90;;;;;;7389985;19;20399;-81
2023/12/01 07:39:50;;;;;;;1.27;1.17;;;4.90;99.90;;;;;;7392178;19;20229;-81
2023/12/01 07:42:16;;;;;;;2.00;1.87;;;4.90;99.90;;;;;;7387043;19;20162;-82
2023/12/01 07:44:42;;;;;;;1.27;1.17;;;5.00;99.90;;;;;;7388220;19;20188;-80
2023/12/01 07:47:11;;;;;;;1.40;1.27;;;4.90;99.90;;;;;;7387163;19;20171;-80
2023/12/01 07:49:38;;;;;;;2.17;1.90;;;5.00;99.90;;;;;;7390340;19;20130;-82
2023/12/01 07:52:06;;;;;;;3.30;2.20;;;5.00;99.90;;;;;;7391011;19;20819;-82
2023/12/01 07:54:33;;;;;;;2.07;1.70;;;5.00;99.90;;;;;;7393378;19;20357;-81
2023/12/01 07:56:59;;;;;;;2.10;1.90;;;4.90;99.90;;;;;;7391814;19;20146;-84
2023/12/01 07:59:27;;;;;;;2.00;1.70;;;4.90;99.90;;;;;;7394246;19;20134;-85
2023/12/01 08:01:53;;;;;;;2.37;1.63;;;4.90;99.90;;;;;;7387204;19;20138;-82
2023/12/01 08:04:20;;;;;;;2.60;1.93;;;5.00;99.90;;;;;;7387984;19;20130;-82
2023/12/01 08:06:45;;;;;;;2.37;1.90;;;5.00;99.90;;;;;;7389175;19;20135;-83
2023/12/01 08:09:16;;;;;;;2.30;1.80;;;4.80;99.90;;;;;;7390551;19;20463;-82
2023/12/01 08:11:45;;;;;;;2.13;1.33;;;4.90;99.90;;;;;;7386590;19;20130;-80
2023/12/01 08:14:11;;;;;;;3.67;1.97;;;4.70;99.90;;;;;;7390828;19;20492;-83
2023/12/01 08:16:36;;;;;;;1.37;1.27;;;4.50;99.90;;;;;;7389529;19;20198;-83
2023/12/01 08:19:03;;;;;;;1.53;1.43;;;4.80;99.90;;;;;;7389655;19;20123;-84
2023/12/01 08:21:31;;;;;;;1.53;1.43;;;4.80;99.90;;;;;;7384629;19;21029;-83
2023/12/01 08:23:58;;;;;;;2.17;1.40;;;5.00;99.90;;;;;;7390070;19;20178;-84
2023/12/01 08:26:24;;;;;;;2.17;1.90;;;5.10;99.90;;;;;;7387433;19;20134;-82
2023/12/01 08:28:50;;;;;;;1.80;1.70;;;5.10;99.90;;;;;;7389734;19;20138;-79
2023/12/01 08:31:16;;;;;;;2.20;2.00;;;5.10;99.90;;;;;;7388536;19;20127;-84
2023/12/01 08:33:42;;;;;;;2.23;2.00;;;5.00;99.90;;;;;;7389333;19;20234;-82
2023/12/01 08:36:09;;;;;;;1.30;1.20;;;4.90;99.90;;;;;;7386995;19;20529;-81
2023/12/01 08:38:35;;;;;;;8.77;3.03;;;4.80;99.90;;;;;;7388486;19;20138;-84
2023/12/01 08:41:01;;;;;;;2.43;1.60;;;4.80;99.90;;;;;;7384966;19;20290;-81
2023/12/01 08:43:26;;;;;;;2.50;1.87;;;4.90;99.90;;;;;;7385209;19;20229;-81
2023/12/01 08:45:52;;;;;;;2.10;1.70;;;5.00;99.90;;;;;;7386897;19;20134;-84
2023/12/01 08:48:18;;;;;;;1.60;1.33;;;4.90;99.90;;;;;;7387457;19;20144;-78
2023/12/01 08:50:46;;;;;;;2.70;1.57;;;5.00;99.90;;;;;;7390682;19;20150;-84
2023/12/01 08:53:12;;;;;;;2.20;2.00;;;5.00;99.90;;;;;;7391443;19;20142;-85
2023/12/01 08:55:37;;;;;;;2.03;1.80;;;4.80;99.90;;;;;;7388021;19;20134;-82
2023/12/01 08:58:03;;;;;;;1.60;1.50;;;4.70;99.90;;;;;;7386904;19;20160;-84
2023/12/01 09:00:32;;;;;;;1.67;1.57;;;4.80;99.90;;;;;;7387262;19;20142;-85
2023/12/01 09:02:57;;;;;;;1.80;1.67;;;4.90;99.90;;;;;;7401425;19;20499;-84
2023/12/01 09:05:24;;;;;;;1.93;1.80;;;5.00;99.90;;;;;;7388276;19;20131;-84
2023/12/01 09:07:50;;;;;;;2.23;2.00;;;5.00;99.90;;;;;;7385006;19;20468;-83
2023/12/01 09:10:16;;;;;;;2.43;2.20;;;5.10;99.90;;;;;;7390325;19;20141;-83
2023/12/01 09:12:43;;;;;;;2.30;2.10;;;5.10;99.90;;;;;;7385104;19;20151;-82
2023/12/01 09:15:10;;;;;;;1.40;1.20;;;4.80;99.90;;;;;;7387955;19;20139;-80
2023/12/01 09:17:36;;;;;;;2.83;2.03;;;5.00;99.90;;;;;;7385913;19;20139;-82
2023/12/01 09:20:02;;;;;;;1.90;1.70;;;5.00;99.90;;;;;;7389996;19;20143;-84
2023/12/01 09:22:28;;;;;;;2.97;2.33;;;5.00;99.90;;;;;;7386044;19;20135;-83
2023/12/01 09:24:54;;;;;;;2.43;1.90;;;5.00;99.90;;;;;;7392008;19;20118;-85
2023/12/01 09:27:19;;;;;;;1.77;1.67;;;5.00;99.90;;;;;;7384626;19;20629;-81
2023/12/01 09:29:46;;;;;;;1.77;1.57;;;5.10;99.90;;;;;;7384140;19;20570;-81
2023/12/01 09:32:12;;;;;;;2.13;1.93;;;5.00;99.90;;;;;;7388137;19;20575;-84
2023/12/01 09:34:39;;;;;;;1.93;1.73;;;5.00;99.90;;;;;;7389035;19;20159;-83
2023/12/01 09:37:05;;;;;;;2.27;1.90;;;5.00;99.90;;;;;;7383345;19;20155;-77
2023/12/01 09:39:30;;;;;;;2.73;2.00;;;5.00;99.90;;;;;;7383444;19;20151;-78
2023/12/01 09:41:59;;;;;;;1.57;1.47;;;5.00;99.90;;;;;;7382089;19;20225;-82
2023/12/01 09:44:26;;;;;;;2.40;1.63;;;4.90;99.90;;;;;;7385225;19;20146;-84
2023/12/01 09:46:54;;;;;;;2.20;1.70;;;4.80;99.90;;;;;;7383865;19;20150;-83
2023/12/01 09:49:21;;;;;;;2.80;2.50;;;4.90;99.90;;;;;;7385125;19;20137;-84
2023/12/01 09:51:47;;;;;;;2.23;2.03;;;5.00;99.90;;;;;;7384801;19;20150;-82
2023/12/01 09:54:13;;;;;;;2.33;2.13;;;4.60;99.90;;;;;;7386701;19;20966;-81
2023/12/01 09:56:39;;;;;;;1.60;1.50;;;4.80;99.90;;;;;;7383566;19;20172;-79
2023/12/01 09:59:05;;;;;;;2.33;1.63;;;4.90;99.90;;;;;;7383634;19;20188;-83
2023/12/01 10:01:33;;;;;;;1.93;1.77;;;4.90;99.90;;;;;;7386637;19;20595;-83
2023/12/01 10:03:59;;;;;;;2.93;2.20;;;5.00;99.90;;;;;;7384753;19;20147;-83
2023/12/01 10:06:24;;;;;;;2.57;2.37;;;5.20;99.90;;;;;;7383115;19;20610;-84
2023/12/01 10:08:51;;;;;;;2.30;2.13;;;5.10;99.90;;;;;;7384316;19;20492;-80
2023/12/01 10:11:24;;;;;;;3.23;2.67;;;5.10;99.90;;;;;;7386461;19;20142;-80
2023/12/01 10:13:51;;;;;;;1.93;1.33;;;5.10;99.90;;;;;;7385151;19;20134;-84
2023/12/01 10:16:18;;;;;;;1.93;1.70;;;5.00;99.90;;;;;;7385049;19;20165;-83
2023/12/01 10:19:11;;;;;;;2.80;2.47;;;5.10;99.90;;;;;;7384690;19;20126;-81
2023/12/01 10:21:48;;;;;;;2.17;1.83;;;5.20;99.90;;;;;;7381590;19;20142;-83
2023/12/01 10:24:22;;;;;;;3.60;2.40;;;5.20;99.90;;;;;;7382599;19;20149;-84
2023/12/01 10:26:54;;;;;;;2.20;2.00;;;5.20;99.90;;;;;;7383479;19;20203;-85
2023/12/01 10:29:31;;;;;;;2.43;2.23;;;5.20;99.90;;;;;;7382070;19;20141;-82
2023/12/01 10:31:59;;;;;;;3.43;2.53;;;5.20;99.90;;;;;;7383816;19;20167;-83
2023/12/01 10:34:25;;;;;;;2.37;2.17;;;5.20;99.90;;;;;;7383407;19;20159;-83
2023/12/01 10:36:54;;;;;;;2.47;2.13;;;5.20;99.90;;;;;;7382736;19;20148;-79
2023/12/01 10:39:29;;;;;;;2.43;2.10;;;5.20;99.90;;;;;;7381197;19;20127;-82
2023/12/01 10:41:57;;;;;;;2.00;1.80;;;5.10;99.90;;;;;;7382235;19;20154;-83
2023/12/01 10:44:25;;;;;;;1.70;1.60;;;5.20;99.90;;;;;;7381249;19;20155;-83
2023/12/01 10:46:53;;;;;;;2.30;2.07;;;5.20;99.90;;;;;;7382976;19;20223;-83
2023/12/01 10:49:21;;;;;;;2.53;2.27;;;5.10;99.90;;;;;;7386896;19;20135;-83
2023/12/01 10:51:52;;;;;;;2.73;2.30;;;5.10;99.90;;;;;;7390907;19;20131;-82
2023/12/01 10:54:23;;;;;;;3.17;2.57;;;5.10;99.90;;;;;;7391758;19;20130;-83
2023/12/01 10:57:26;;;;;;;2.67;1.97;;;5.10;99.90;;;;;;7388728;19;20130;-83
2023/12/01 10:59:53;;;;;;;2.70;2.47;;;5.20;99.90;;;;;;7391779;19;20615;-82
2023/12/01 11:02:22;;;;;;;4.07;2.93;;;5.20;99.90;;;;;;7391619;19;20119;-82
2023/12/01 11:04:48;;;;;;;2.00;1.80;;;5.20;99.90;;;;;;7389275;19;20253;-82
2023/12/01 11:07:37;;;;;;;3.30;3.00;;;5.20;99.90;;;;;;7390674;19;20130;-81
2023/12/01 11:10:35;;;;;;;2.60;2.37;;;5.20;99.90;;;;;;7390180;19;20563;-82
2023/12/01 11:13:18;;;;;;;2.47;2.23;;;5.20;99.90;;;;;;7391228;19;20580;-83
2023/12/01 11:15:49;;;;;;;2.27;1.90;;;5.20;99.90;;;;;;7393683;19;20130;-80
2023/12/01 11:18:16;;;;;;;2.43;2.23;;;5.20;99.90;;;;;;7395322;19;20126;-80
2023/12/01 11:20:43;;;;;;;2.73;2.17;;;5.10;99.90;;;;;;7395177;19;20607;-80
2023/12/01 11:23:09;;;;;;;2.77;2.03;;;5.10;99.90;;;;;;7394477;19;20127;-84
2023/12/01 11:25:46;;;;;;;3.73;2.67;;;5.10;99.90;;;;;;7392642;19;20147;-83
2023/12/01 11:31:08;;;;;;;3.00;2.30;;;5.20;99.90;;;;;;7389467;19;20146;-82
2023/12/01 11:33:53;;;;;;;5.27;3.03;;;5.20;99.90;;;;;;7389844;19;20586;-80
2023/12/01 11:36:35;;;;;;;2.97;2.27;;;5.30;99.90;;;;;;7392278;19;20582;-82
2023/12/01 11:41:49;;;;;;;2.90;2.47;;;5.20;99.90;;;;;;7386344;19;20214;-81
2023/12/01 11:44:19;;;;;;;2.70;2.20;;;5.20;99.90;;;;;;7388361;19;20165;-83
2023/12/01 11:46:47;;;;;;;4.13;3.13;;;5.20;99.90;;;;;;7384253;19;20160;-78
2023/12/01 11:49:14;;;;;;;3.93;2.63;;;5.20;99.90;;;;;;7388571;19;20177;-82
2023/12/01 11:51:43;;;;;;;5.17;3.40;;;5.20;99.90;;;;;;7388395;19;20139;-80
2023/12/01 11:54:11;;;;;;;4.10;3.17;;;5.20;99.90;;;;;;7390952;19;20163;-82
2023/12/01 11:56:37;;;;;;;4.20;2.90;;;5.10;99.90;;;;;;7389647;19;20146;-81
2023/12/01 11:59:02;;;;;;;3.90;2.40;;;5.10;99.90;;;;;;7391683;19;20137;-80
2023/12/01 12:01:31;;;;;;;4.47;3.17;;;5.20;99.90;;;;;;7386031;19;20461;-78
2023/12/01 12:03:58;;;;;;;3.00;2.23;;;5.30;99.90;;;;;;7390188;19;20194;-80
2023/12/01 12:06:25;;;;;;;4.27;3.43;;;5.20;99.90;;;;;;7392110;19;20129;-78
2023/12/01 12:08:52;;;;;;;3.83;3.03;;;5.10;99.90;;;;;;7402001;19;20158;-79
2023/12/01 12:11:20;;;;;;;3.67;3.00;;;5.10;99.90;;;;;;7396132;19;20135;-81
2023/12/01 12:13:56;;;;;;;3.50;2.60;;;5.10;99.90;;;;;;7390496;19;20126;-80
2023/12/01 12:16:25;;;;;;;3.30;2.77;;;5.00;99.90;;;;;;7387566;19;20126;-81
2023/12/01 12:18:51;;;;;;;3.93;3.23;;;5.00;99.90;;;;;;7389272;19;20134;-80
2023/12/01 12:21:17;;;;;;;3.73;3.43;;;4.90;99.90;;;;;;7401699;19;20146;-80
2023/12/01 12:23:43;;;;;;;4.70;4.17;;;4.90;99.90;;;;;;7412994;19;20127;-79
2023/12/01 12:26:18;;;;;;;3.50;3.20;;;4.90;99.90;;;;;;7405499;19;20206;-80
2023/12/01 12:28:50;;;;;;;4.17;3.77;;;4.90;99.90;;;;;;7396417;19;20141;-82
2023/12/01 12:31:17;;;;;;;3.90;3.23;;;4.80;99.90;;;;;;7405551;19;20170;-81
2023/12/01 12:33:42;;;;;;;5.03;2.93;;;4.70;99.90;;;;;;7398443;19;20126;-81
2023/12/01 12:36:12;;;;;;;4.20;3.40;;;4.80;99.90;;;;;;7391576;19;20135;-80
2023/12/01 12:38:37;;;;;;;4.60;3.70;;;5.00;99.90;;;;;;7387497;19;20137;-81
2023/12/01 12:41:04;;;;;;;3.57;3.27;;;5.10;99.90;;;;;;7387323;19;20155;-80
2023/12/01 12:43:34;;;;;;;5.37;3.60;;;5.10;99.90;;;;;;7386965;19;20170;-79
2023/12/01 12:46:04;;;;;;;3.77;3.40;;;5.10;99.90;;;;;;7390085;19;20146;-80
2023/12/01 12:48:31;;;;;;;4.87;4.07;;;5.10;99.90;;;;;;7385748;19;20153;-80
2023/12/01 12:50:57;;;;;;;5.43;2.80;;;5.20;99.90;;;;;;7388285;19;20560;-81
2023/12/01 12:53:22;;;;;;;4.03;3.47;;;5.20;99.90;;;;;;7386005;19;20151;-81
2023/12/01 12:55:48;;;;;;;5.77;3.03;;;5.20;99.90;;;;;;7388066;19;20147;-77
2023/12/01 12:58:15;;;;;;;4.73;4.00;;;5.10;99.90;;;;;;7385038;19;20158;-79
2023/12/01 13:00:42;;;;;;;6.30;3.97;;;5.20;99.90;;;;;;7391309;19;20460;-80
2023/12/01 13:03:08;;;;;;;4.70;4.03;;;5.20;99.90;;;;;;7390286;19;20155;-80
2023/12/01 13:05:33;;;;;;;6.63;3.53;;;5.10;99.90;;;;;;7393526;19;20588;-81
2023/12/01 13:07:59;;;;;;;7.00;5.23;;;5.10;99.90;;;;;;7390431;19;20137;-80